.
WxDataArchive / Data Records for 2008-10-26
2008-10-25 October 2008 2008-10-27

Data Records for Sunday, 26 October 2008

Time	Temp	Chill	HIndex	Humid	Dewpt	 Wind 	HiWind	WindDir	Rain 	Barom 
-----	----	-----	------	-----	-----	------	------	-------	-----	----- 
00:00	43.3	43.3	43.3	81	37.9	1	3	248	0.00	29.761 
00:05	43.3	43.3	43.3	81	37.9	2	9	248	0.00	29.756 
00:10	43.3	43.3	43.3	81	37.9	1	6	248	0.00	29.751 
00:15	43.5	43.5	43.5	81	38.1	2	10	248	0.00	29.747 
00:20	43.6	43.6	43.6	81	38.2	1	6	248	0.00	29.748 
00:25	43.6	43.6	43.6	80	37.8	2	5	248	0.00	29.746 
00:30	43.8	43.8	43.8	80	38.0	2	10	248	0.00	29.745 
00:35	43.9	43.9	43.9	80	38.1	1	4	248	0.00	29.743 
00:40	43.9	43.9	43.9	80	38.1	2	4	248	0.00	29.740 
00:45	44.1	44.1	44.1	80	38.3	1	5	248	0.00	29.738 
00:50	44.1	44.1	44.1	80	38.3	1	5	248	0.00	29.737 
00:55	44.2	44.2	44.2	79	38.1	2	6	248	0.00	29.733 
01:00	44.3	44.3	44.3	79	38.2	2	7	248	0.00	29.729 
01:05	44.6	44.6	44.6	78	38.2	2	7	248	0.00	29.721 
01:10	44.9	44.9	44.9	78	38.5	3	6	270	0.00	29.717 
01:15	45.1	45.1	45.1	77	38.3	3	7	248	0.00	29.714 
01:20	45.4	43.6	45.4	76	38.3	4	11	248	0.00	29.710 
01:25	45.5	45.5	45.5	76	38.4	2	9	248	0.00	29.705 
01:30	45.7	45.7	45.7	76	38.6	2	7	248	0.00	29.698 
01:35	45.7	45.7	45.7	75	38.2	3	11	248	0.00	29.697 
01:40	45.8	45.8	45.8	75	38.3	2	7	248	0.00	29.691 
01:45	46.0	46.0	46.0	75	38.5	3	9	248	0.00	29.681 
01:50	46.1	46.1	46.1	75	38.6	2	9	248	0.00	29.680 
01:55	46.2	44.5	46.2	74	38.4	4	9	270	0.00	29.683 
02:00	46.5	46.5	46.5	73	38.3	3	12	248	0.00	29.691 
02:05	46.7	46.7	46.7	73	38.5	2	9	248	0.00	29.693 
02:10	46.7	46.7	46.7	73	38.5	3	10	248	0.00	29.694 
02:15	46.7	46.7	46.7	73	38.5	3	6	248	0.00	29.695 
02:20	46.8	46.8	46.8	73	38.6	3	9	270	0.00	29.694 
02:25	46.8	45.2	46.8	73	38.6	4	10	270	0.00	29.694 
02:30	46.8	46.8	46.8	73	38.6	3	11	248	0.00	29.694 
02:35	46.8	46.8	46.8	73	38.6	3	9	248	0.00	29.688 
02:40	46.8	46.8	46.8	73	38.6	2	7	248	0.00	29.686 
02:45	46.8	46.8	46.8	73	38.6	2	7	248	0.00	29.687 
02:50	46.8	46.8	46.8	73	38.6	3	9	270	0.00	29.681 
02:55	46.7	46.7	46.7	73	38.5	2	6	248	0.00	29.683 
03:00	46.7	46.7	46.7	73	38.5	2	5	225	0.00	29.685 
03:05	46.5	46.5	46.5	74	38.7	2	7	270	0.00	29.685 
03:10	46.5	46.5	46.5	74	38.7	2	5	248	0.00	29.683 
03:15	46.5	46.5	46.5	74	38.7	3	12	248	0.00	29.680 
03:20	46.5	46.5	46.5	74	38.7	3	7	248	0.00	29.679 
03:25	46.7	46.7	46.7	74	38.9	3	6	248	0.00	29.679 
03:30	46.7	46.7	46.7	74	38.9	2	7	248	0.00	29.676 
03:35	46.7	46.7	46.7	74	38.9	1	5	248	0.00	29.671 
03:40	46.7	46.7	46.7	74	38.9	1	6	248	0.00	29.664 
03:45	46.7	46.7	46.7	75	39.2	1	5	248	0.00	29.665 
03:50	46.7	46.7	46.7	75	39.2	2	6	248	0.00	29.664 
03:55	46.7	46.7	46.7	75	39.2	2	7	248	0.00	29.664 
04:00	46.7	46.7	46.7	75	39.2	2	5	248	0.00	29.666 
04:05	46.5	46.5	46.5	75	39.0	1	4	248	0.00	29.671 
04:10	46.5	46.5	46.5	75	39.0	2	7	248	0.00	29.674 
04:15	46.5	46.5	46.5	76	39.3	2	7	248	0.00	29.677 
04:20	46.5	46.5	46.5	76	39.3	2	6	248	0.00	29.679 
04:25	46.5	46.5	46.5	76	39.3	2	6	248	0.00	29.680 
04:30	46.5	46.5	46.5	76	39.3	2	6	248	0.00	29.679 
04:35	46.4	46.4	46.4	76	39.3	2	5	270	0.00	29.677 
04:40	46.4	46.4	46.4	77	39.6	2	6	248	0.00	29.673 
04:45	46.4	46.4	46.4	77	39.6	2	5	248	0.00	29.668 
04:50	46.4	46.4	46.4	77	39.6	3	9	248	0.00	29.666 
04:55	46.4	46.4	46.4	77	39.6	3	11	248	0.00	29.666 
05:00	46.4	46.4	46.4	77	39.6	2	5	248	0.00	29.677 
05:05	46.2	46.2	46.2	77	39.4	2	8	248	0.00	29.672 
05:10	46.2	46.2	46.2	77	39.4	3	9	248	0.00	29.674 
05:15	46.1	46.1	46.1	78	39.6	2	4	248	0.00	29.672 
05:20	46.1	46.1	46.1	78	39.6	3	7	248	0.00	29.667 
05:25	46.0	46.0	46.0	78	39.5	2	7	225	0.00	29.667 
05:30	45.8	45.8	45.8	79	39.7	2	6	225	0.00	29.667 
05:35	45.8	45.8	45.8	79	39.7	2	10	248	0.00	29.668 
05:40	45.8	45.8	45.8	79	39.7	1	4	248	0.00	29.676 
05:45	45.8	45.8	45.8	79	39.7	1	3	248	0.00	29.678 
05:50	45.8	45.8	45.8	80	40.0	2	6	248	0.00	29.680 
05:55	45.8	45.8	45.8	80	40.0	2	6	248	0.00	29.684 
06:00	46.0	46.0	46.0	80	40.2	3	7	248	0.00	29.690 
06:05	46.0	46.0	46.0	80	40.2	3	8	248	0.00	29.693 
06:10	46.1	46.1	46.1	80	40.3	2	6	248	0.00	29.685 
06:15	46.1	46.1	46.1	80	40.3	2	5	248	0.00	29.687 
06:20	46.2	46.2	46.2	80	40.4	2	9	248	0.00	29.683 
06:25	46.4	46.4	46.4	80	40.6	3	7	248	0.00	29.687 
06:30	46.5	46.5	46.5	79	40.3	3	7	248	0.00	29.695 
06:35	46.5	46.5	46.5	79	40.3	3	6	248	0.00	29.698 
06:40	46.7	46.7	46.7	79	40.5	2	7	248	0.00	29.691 
06:45	46.8	46.8	46.8	79	40.6	3	7	248	0.00	29.682 
06:50	46.8	46.8	46.8	79	40.6	2	6	248	0.00	29.682 
06:55	47.0	47.0	47.0	79	40.8	2	6	248	0.00	29.682 
07:00	47.0	47.0	47.0	79	40.8	2	10	270	0.00	29.675 
07:05	47.0	47.0	47.0	79	40.8	2	5	248	0.00	29.675 
07:10	47.1	47.1	47.1	79	40.9	1	5	225	0.00	29.693 
07:15	47.1	47.1	47.1	79	40.9	2	7	248	0.00	29.683 
07:20	47.3	47.3	47.3	79	41.1	2	4	248	0.00	29.685 
07:25	47.4	47.4	47.4	79	41.2	2	10	248	0.00	29.690 
07:30	47.6	47.6	47.6	78	41.1	3	7	248	0.00	29.686 
07:35	47.9	47.9	47.9	78	41.4	1	5	248	0.00	29.694 
07:40	48.0	48.0	48.0	78	41.5	2	7	248	0.00	29.695 
07:45	48.0	48.0	48.0	77	41.1	1	5	248	0.00	29.694 
07:50	48.0	48.0	48.0	78	41.5	2	4	248	0.00	29.697 
07:55	48.2	48.2	48.2	77	41.3	3	7	248	0.00	29.702 
08:00	48.2	48.2	48.2	77	41.3	2	6	248	0.00	29.711 
08:05	48.2	48.2	48.2	77	41.3	3	6	248	0.00	29.713 
08:10	48.3	48.3	48.3	77	41.4	2	5	248	0.00	29.715 
08:15	48.3	48.3	48.3	77	41.4	3	8	248	0.00	29.721 
08:20	48.5	48.5	48.5	77	41.6	3	7	248	0.00	29.714 
08:25	48.6	48.6	48.6	77	41.7	3	5	248	0.00	29.714 
08:30	48.6	48.6	48.6	77	41.7	3	11	270	0.00	29.718 
08:35	48.8	48.8	48.8	77	41.9	3	7	248	0.00	29.714 
08:40	48.9	48.9	48.9	76	41.7	3	10	248	0.00	29.715 
08:45	49.1	49.1	49.1	77	42.2	3	9	270	0.00	29.727 
08:50	48.9	48.9	48.9	78	42.3	2	5	270	0.00	29.728 
08:55	48.8	48.8	48.8	80	42.9	2	6	270	0.01	29.711 
09:00	48.6	48.6	48.6	82	43.4	1	4	248	0.00	29.721 
09:05	48.3	48.3	48.3	84	43.7	1	4	248	0.01	29.696 
09:10	48.2	48.2	48.2	85	43.9	2	6	248	0.00	29.698 
09:15	48.2	48.2	48.2	86	44.2	2	7	270	0.00	29.691 
09:20	48.2	48.2	48.2	85	43.9	3	10	225	0.00	29.699 
09:25	48.2	48.2	48.2	85	43.9	2	6	270	0.00	29.697 
09:30	48.5	48.5	48.5	84	43.9	3	13	248	0.00	29.693 
09:35	48.8	48.8	48.8	83	43.9	2	8	270	0.00	29.693 
09:40	49.4	48.2	49.4	80	43.5	4	12	248	0.00	29.689 
09:45	50.2	50.2	50.2	75	42.6	5	13	248	0.00	29.682 
09:50	51.0	51.0	51.0	73	42.7	3	16	248	0.00	29.680 
09:55	51.3	51.3	51.3	71	42.2	3	12	270	0.00	29.656 
10:00	51.4	51.4	51.4	70	41.9	4	11	248	0.00	29.670 
10:05	51.7	51.7	51.7	70	42.2	3	7	248	0.00	29.676 
10:10	52.0	52.0	52.0	69	42.1	4	10	248	0.00	29.698 
10:15	52.5	52.5	52.5	70	43.0	3	8	248	0.00	29.707 
10:20	52.8	52.8	52.8	68	42.5	3	9	248	0.00	29.694 
10:25	53.1	53.1	53.1	68	42.8	2	7	270	0.00	29.688 
10:30	53.3	53.3	53.3	67	42.6	2	6	248	0.00	29.690 
10:35	53.3	53.3	53.3	67	42.6	2	5	248	0.00	29.685 
10:40	53.8	53.8	53.8	66	42.7	2	8	248	0.00	29.682 
10:45	54.2	54.2	54.2	66	43.1	2	9	248	0.00	29.677 
10:50	54.8	54.8	54.8	65	43.3	2	5	248	0.00	29.675 
10:55	55.3	55.3	55.3	65	43.7	2	10	248	0.00	29.675 
11:00	55.7	55.7	55.7	62	42.9	4	11	270	0.00	29.676 
11:05	55.9	55.9	55.9	62	43.1	3	6	270	0.00	29.682 
11:10	56.2	56.2	56.2	62	43.4	3	11	248	0.00	29.684 
11:15	56.5	56.5	56.5	61	43.2	4	6	270	0.00	29.683 
11:20	56.6	56.6	56.6	61	43.3	5	11	248	0.00	29.680 
11:25	56.6	56.6	56.6	61	43.3	4	11	270	0.00	29.675 
11:30	56.7	56.7	56.7	61	43.4	5	13	270	0.00	29.680 
11:35	56.3	56.3	56.3	62	43.4	4	10	270	0.00	29.685 
11:40	56.3	56.3	56.3	62	43.4	3	10	270	0.00	29.687 
11:45	56.7	56.7	56.7	61	43.4	4	11	270	0.00	29.690 
11:50	56.7	56.7	56.7	62	43.8	4	9	270	0.00	29.687 
11:55	57.0	57.0	57.0	59	42.8	4	11	270	0.00	29.687 
12:00	56.9	56.9	56.9	58	42.3	4	9	270	0.00	29.685 
12:05	56.7	56.7	56.7	57	41.6	5	12	270	0.00	29.684 
12:10	56.6	56.6	56.6	58	42.0	4	10	270	0.00	29.688 
12:15	57.3	57.3	57.3	59	43.1	3	6	270	0.00	29.688 
12:20	58.3	58.3	58.3	57	43.1	3	6	270	0.00	29.686 
12:25	58.7	58.7	58.7	54	42.1	4	7	270	0.00	29.686 
12:30	58.7	58.7	58.7	53	41.6	4	14	270	0.00	29.686 
12:35	58.3	58.3	58.3	51	40.3	4	7	270	0.00	29.683 
12:40	58.4	58.4	58.4	54	41.8	3	10	248	0.00	29.685 
12:45	58.6	58.6	58.6	50	40.0	4	7	270	0.00	29.685 
12:50	58.7	58.7	58.7	49	39.6	4	10	270	0.00	29.688 
12:55	58.4	58.4	58.4	49	39.3	4	9	270	0.00	29.688 
13:00	58.4	58.4	58.4	49	39.3	4	7	270	0.00	29.688 
13:05	58.3	58.3	58.3	45	37.1	5	9	270	0.00	29.686 
13:10	58.6	58.6	58.6	48	39.0	3	9	248	0.00	29.681 
13:15	59.3	59.3	59.3	43	36.8	4	11	270	0.00	29.684 
13:20	59.3	59.3	59.3	45	38.0	4	14	248	0.00	29.680 
13:25	59.5	59.5	59.5	42	36.4	3	9	248	0.00	29.680 
13:30	59.2	59.2	59.2	36	32.3	4	7	270	0.00	29.683 
13:35	59.2	59.2	59.2	39	34.3	5	10	270	0.00	29.683 
13:40	59.2	59.2	59.2	39	34.3	4	8	270	0.00	29.683 
13:45	59.0	59.0	59.0	36	32.1	5	13	270	0.00	29.685 
13:50	58.9	58.9	58.9	35	31.3	5	11	270	0.00	29.689 
13:55	58.9	58.9	58.9	38	33.3	5	11	270	0.00	29.690 
14:00	58.7	58.7	58.7	35	31.1	6	16	270	0.00	29.690 
14:05	58.9	58.9	58.9	34	30.6	4	16	270	0.00	29.687 
14:10	58.9	58.9	58.9	32	29.1	5	12	270	0.00	29.689 
14:15	58.9	58.9	58.9	31	28.3	4	9	248	0.00	29.691 
14:20	59.2	59.2	59.2	30	27.8	4	9	248	0.00	29.697 
14:25	59.0	59.0	59.0	32	29.2	3	10	270	0.00	29.696 
14:30	59.0	59.0	59.0	28	25.9	5	13	248	0.00	29.698 
14:35	58.6	58.6	58.6	28	25.6	6	12	270	0.00	29.697 
14:40	58.6	58.6	58.6	27	24.7	3	11	248	0.00	29.691 
14:45	58.9	58.9	58.9	29	26.7	3	9	270	0.00	29.688 
14:50	58.9	58.9	58.9	27	25.0	4	7	248	0.00	29.687 
14:55	58.7	58.7	58.7	28	25.7	4	10	270	0.00	29.690 
15:00	58.7	58.7	58.7	27	24.8	5	10	270	0.00	29.692 
15:05	58.9	58.9	58.9	28	25.9	3	10	270	0.00	29.694 
15:10	58.9	58.9	58.9	26	24.1	4	9	248	0.00	29.700 
15:15	58.6	58.6	58.6	26	23.8	4	9	270	0.00	29.703 
15:20	58.7	58.7	58.7	27	24.8	3	6	270	0.00	29.703 
15:25	58.7	58.7	58.7	27	24.8	4	11	270	0.00	29.705 
15:30	58.3	58.3	58.3	26	23.6	5	12	270	0.00	29.709 
15:35	57.6	57.6	57.6	28	24.7	4	9	270	0.00	29.709 
15:40	57.8	57.8	57.8	30	26.6	5	12	270	0.00	29.710 
15:45	58.0	58.0	58.0	29	25.9	5	10	270	0.00	29.713 
15:50	58.0	58.0	58.0	29	25.9	4	11	270	0.00	29.716 
15:55	57.6	57.6	57.6	27	23.9	5	12	270	0.00	29.717 
16:00	57.2	57.2	57.2	28	24.4	5	15	270	0.00	29.717 
16:05	57.0	57.0	57.0	27	23.4	4	10	270	0.00	29.717 
16:10	56.7	56.7	56.7	29	24.8	5	11	270	0.00	29.718 
16:15	56.3	56.3	56.3	31	26.1	4	11	270	0.00	29.721 
16:20	56.3	56.3	56.3	32	26.8	3	11	270	0.00	29.721 
16:25	56.3	56.3	56.3	33	27.6	4	6	270	0.00	29.723 
16:30	56.2	56.2	56.2	33	27.5	5	15	270	0.00	29.726 
16:35	55.7	55.7	55.7	33	27.0	5	13	270	0.00	29.730 
16:40	55.7	55.7	55.7	34	27.8	5	12	270	0.00	29.736 
16:45	55.7	55.7	55.7	35	28.5	3	10	270	0.00	29.732 
16:50	55.7	55.7	55.7	32	26.3	4	11	248	0.00	29.733 
16:55	55.3	55.3	55.3	31	25.2	5	11	270	0.00	29.739 
17:00	54.7	54.7	54.7	31	24.7	6	13	270	0.00	29.748 
17:05	54.2	54.2	54.2	33	25.7	4	9	270	0.00	29.748 
17:10	53.9	53.9	53.9	34	26.2	5	11	270	0.00	29.744 
17:15	53.6	53.6	53.6	35	26.6	4	11	248	0.00	29.744 
17:20	53.3	53.3	53.3	35	26.4	3	6	248	0.00	29.745 
17:25	53.2	53.2	53.2	35	26.3	4	11	270	0.00	29.751 
17:30	53.1	53.1	53.1	35	26.2	3	9	270	0.00	29.755 
17:35	53.2	53.2	53.2	32	24.1	6	13	270	0.00	29.761 
17:40	52.6	52.6	52.6	33	24.3	7	14	270	0.00	29.772 
17:45	51.9	51.9	51.9	36	25.8	6	17	270	0.00	29.776 
17:50	51.3	51.3	51.3	39	27.2	4	12	270	0.00	29.788 
17:55	50.5	50.5	50.5	45	30.0	6	15	270	0.00	29.796 
18:00	48.8	46.8	48.8	53	32.4	5	12	270	0.00	29.806 
18:05	48.5	47.1	48.5	49	30.2	4	10	270	0.00	29.803 
18:10	48.8	46.8	48.8	46	28.9	5	10	270	0.00	29.814 
18:15	48.6	46.6	48.6	47	29.3	5	8	270	0.00	29.823 
18:20	47.9	45.8	47.9	49	29.7	5	12	315	0.00	29.832 
18:25	47.0	44.1	47.0	52	30.3	6	13	270	0.00	29.837 
18:30	46.4	44.0	46.4	54	30.7	5	12	270	0.00	29.844 
18:35	46.0	43.5	46.0	55	30.7	5	12	270	0.00	29.848 
18:40	45.5	45.5	45.5	55	30.3	2	5	292	0.00	29.839 
18:45	45.4	45.4	45.4	54	29.7	2	4	270	0.00	29.839 
18:50	45.4	45.4	45.4	53	29.3	2	6	270	0.00	29.845 
18:55	45.4	45.4	45.4	52	28.8	2	5	270	0.00	29.842 
19:00	45.5	45.5	45.5	47	26.5	3	6	270	0.00	29.846 
19:05	45.7	45.7	45.7	47	26.6	2	8	270	0.00	29.851 
19:10	45.8	45.8	45.8	46	26.2	3	9	270	0.00	29.850 
19:15	45.8	45.8	45.8	47	26.7	3	6	270	0.00	29.850 
19:20	45.8	45.8	45.8	47	26.7	3	5	248	0.00	29.842 
19:25	45.7	45.7	45.7	48	27.1	2	5	292	0.00	29.836 
19:30	45.5	45.5	45.5	49	27.5	2	4	270	0.00	29.846 
19:35	45.2	45.2	45.2	48	26.7	2	5	270	0.00	29.853 
19:40	45.2	43.3	45.2	47	26.2	4	9	270	0.00	29.856 
19:45	45.1	43.2	45.1	46	25.6	4	8	270	0.00	29.856 
19:50	44.9	44.9	44.9	46	25.4	3	7	270	0.00	29.858 
19:55	44.8	42.9	44.8	46	25.3	4	7	270	0.00	29.857 
20:00	44.5	42.5	44.5	46	25.0	4	6	270	0.00	29.857 
20:05	44.2	44.2	44.2	47	25.3	2	5	248	0.00	29.858 
20:10	44.1	44.1	44.1	47	25.2	3	9	270	0.00	29.858 
20:15	43.8	43.8	43.8	49	25.9	2	6	315	0.00	29.859 
20:20	43.5	43.5	43.5	50	26.1	2	6	292	0.00	29.866 
20:25	43.1	43.1	43.1	51	26.2	2	6	270	0.00	29.866 
20:30	42.8	40.6	42.8	53	26.9	4	9	270	0.00	29.868 
20:35	42.5	42.5	42.5	54	27.0	3	7	270	0.00	29.870 
20:40	42.2	39.9	42.2	55	27.2	4	7	270	0.00	29.873 
20:45	41.9	41.9	41.9	55	26.9	2	6	270	0.00	29.874 
20:50	41.8	39.4	41.8	54	26.4	4	6	270	0.00	29.878 
20:55	41.5	39.1	41.5	54	26.1	4	7	270	0.00	29.878 
21:00	41.3	41.3	41.3	55	26.4	2	6	315	0.00	29.880 
21:05	40.9	38.4	40.9	55	26.0	4	9	270	0.00	29.882 
21:10	40.6	38.0	40.6	56	26.1	4	9	270	0.00	29.882 
21:15	40.3	40.3	40.3	56	25.9	3	7	270	0.00	29.885 
21:20	40.2	40.2	40.2	57	26.2	2	6	270	0.00	29.885 
21:25	40.1	40.1	40.1	57	26.1	3	6	270	0.00	29.887 
21:30	40.1	40.1	40.1	57	26.1	3	6	270	0.00	29.889 
21:35	39.9	39.9	39.9	57	25.9	3	8	270	0.00	29.888 
21:40	39.9	39.9	39.9	57	25.9	2	5	248	0.00	29.888 
21:45	39.6	39.6	39.6	57	25.6	2	6	248	0.00	29.888 
21:50	39.6	39.6	39.6	57	25.6	2	9	248	0.00	29.889 
21:55	39.5	39.5	39.5	58	26.0	2	6	248	0.00	29.889 
22:00	39.5	39.5	39.5	58	26.0	2	6	248	0.00	29.889 
22:05	39.5	39.5	39.5	58	26.0	2	6	248	0.00	29.885 
22:10	39.5	39.5	39.5	58	26.0	3	10	270	0.00	29.885 
22:15	39.5	39.5	39.5	58	26.0	3	6	270	0.00	29.886 
22:20	39.5	39.5	39.5	58	26.0	2	7	270	0.00	29.886 
22:25	39.3	39.3	39.3	58	25.8	2	7	248	0.00	29.888 
22:30	39.2	39.2	39.2	58	25.7	2	5	248	0.00	29.888 
22:35	39.1	39.1	39.1	58	25.6	2	3	248	0.00	29.887 
22:40	38.9	38.9	38.9	58	25.4	1	4	248	0.00	29.886 
22:45	38.9	38.9	38.9	58	25.4	3	7	248	0.00	29.886 
22:50	38.9	38.9	38.9	58	25.4	2	6	248	0.00	29.887 
22:55	38.8	38.8	38.8	58	25.3	2	10	248	0.00	29.888 
23:00	38.8	38.8	38.8	59	25.7	1	3	248	0.00	29.890 
23:05	38.6	38.6	38.6	59	25.5	2	6	248	0.00	29.890 
23:10	38.5	38.5	38.5	60	25.8	2	5	248	0.00	29.890 
23:15	38.5	38.5	38.5	60	25.8	2	5	248	0.00	29.890 
23:20	38.5	38.5	38.5	60	25.8	2	10	248	0.00	29.891 
23:25	38.3	38.3	38.3	60	25.6	1	5	248	0.00	29.889 
23:30	38.3	38.3	38.3	61	26.0	1	4	248	0.00	29.894 
23:35	38.2	38.2	38.2	61	26.0	2	4	248	0.00	29.895 
23:40	38.2	38.2	38.2	61	26.0	2	5	248	0.00	29.895 
23:45	38.2	38.2	38.2	62	26.3	2	5	270	0.00	29.900 
23:50	38.0	38.0	38.0	61	25.8	3	7	270	0.00	29.899 
23:55	38.0	38.0	38.0	62	26.2	2	7	248	0.00	29.900 

CoCoRaHS
IN-AL-39
A2 Web Hosting
Creative Commons License
GoDaddy
Look for:

loaded 2017-10-17 22:33:35 • last modified 2010-11-18 10:43:29
Privacy PolicyDisclaimer
• wx.awcolley.com is powered by PmWiki v.2002016 •
• all content (unless otherwise noted) © 2017 A W Colley